Aviation Digital Data Service (ADDS)

Output produced by METARs form (1537 UTC 19 January 2019)
found at http://www.aviationweather.gov/metar/data/
 
Forecast for: KSAT (SAN ANTONIO , TX, US)
Text: KSAT 191123Z 1912/2018 32020G30KT P6SM FEW100
Forecast period: 1200 UTC 19 January 2019 to 0100 UTC 20 January 2019
Forecast type: FROM: standard forecast or significant change
Winds: from the NW (320 degrees) at 23 MPH (20 knots; 10.3 m/s)
gusting to 34 MPH (30 knots; 15.4 m/s)
Visibility: 6 or more miles 10+ km)
Ceiling: at least 12,000 feet AGL
Clouds: few clouds at 10000 feet AGL
Weather: no significant weather forecast for this period
Text: FM200100 33010KT P6SM SKC
Forecast period: 0100 to 1800 UTC 20 January 2019
Forecast type: FROM: standard forecast or significant change
Winds: from the NNW (330 degrees) at 12 MPH (10 knots; 5.1 m/s)
Visibility: 6 or more miles 10+ km)
Clouds: clear skies
Weather: no significant weather forecast for this period